sensor_id;sensor_type;location;lat;lon;timestamp;temperature;humidity
1700;DHT22;847;48.058;7.810;2022-12-08T00:01:52;2.60;99.00
1700;DHT22;847;48.058;7.810;2022-12-08T00:04:19;2.60;99.00
1700;DHT22;847;48.058;7.810;2022-12-08T00:06:46;2.60;99.00
1700;DHT22;847;48.058;7.810;2022-12-08T00:09:33;2.60;99.00
1700;DHT22;847;48.058;7.810;2022-12-08T00:12:02;2.50;99.00
1700;DHT22;847;48.058;7.810;2022-12-08T00:14:32;2.50;99.00
1700;DHT22;847;48.058;7.810;2022-12-08T00:17:00;2.50;99.00
1700;DHT22;847;48.058;7.810;2022-12-08T00:19:29;2.50;99.00
1700;DHT22;847;48.058;7.810;2022-12-08T00:21:56;2.40;99.00
1700;DHT22;847;48.058;7.810;2022-12-08T00:24:28;2.30;99.00
1700;DHT22;847;48.058;7.810;2022-12-08T00:26:57;2.20;99.00
1700;DHT22;847;48.058;7.810;2022-12-08T00:29:23;2.20;99.00
1700;DHT22;847;48.058;7.810;2022-12-08T00:31:50;2.20;99.00
1700;DHT22;847;48.058;7.810;2022-12-08T00:34:17;2.20;99.00
1700;DHT22;847;48.058;7.810;2022-12-08T00:36:44;2.20;99.00
1700;DHT22;847;48.058;7.810;2022-12-08T00:39:12;2.20;99.00
1700;DHT22;847;48.058;7.810;2022-12-08T00:41:40;2.20;99.00
1700;DHT22;847;48.058;7.810;2022-12-08T00:44:25;2.30;99.00
1700;DHT22;847;48.058;7.810;2022-12-08T00:46:51;2.20;99.00
1700;DHT22;847;48.058;7.810;2022-12-08T00:49:18;2.10;99.00
1700;DHT22;847;48.058;7.810;2022-12-08T00:51:45;2.10;99.00
1700;DHT22;847;48.058;7.810;2022-12-08T00:54:12;2.00;99.00
1700;DHT22;847;48.058;7.810;2022-12-08T00:56:39;2.00;99.00
1700;DHT22;847;48.058;7.810;2022-12-08T00:59:06;2.00;99.00
1700;DHT22;847;48.058;7.810;2022-12-08T01:01:35;2.00;99.00
1700;DHT22;847;48.058;7.810;2022-12-08T01:04:03;2.00;99.00
1700;DHT22;847;48.058;7.810;2022-12-08T01:06:30;2.00;99.00
1700;DHT22;847;48.058;7.810;2022-12-08T01:08:57;2.00;99.00
1700;DHT22;847;48.058;7.810;2022-12-08T01:11:24;1.80;99.00
1700;DHT22;847;48.058;7.810;2022-12-08T01:13:51;1.80;99.00
1700;DHT22;847;48.058;7.810;2022-12-08T01:16:19;1.70;99.00
1700;DHT22;847;48.058;7.810;2022-12-08T01:18:47;1.70;99.00
1700;DHT22;847;48.058;7.810;2022-12-08T01:21:14;1.60;99.00
1700;DHT22;847;48.058;7.810;2022-12-08T01:23:41;1.60;99.00
1700;DHT22;847;48.058;7.810;2022-12-08T01:26:09;1.50;99.00
1700;DHT22;847;48.058;7.810;2022-12-08T01:28:37;1.50;99.00
1700;DHT22;847;48.058;7.810;2022-12-08T01:31:08;1.40;99.00
1700;DHT22;847;48.058;7.810;2022-12-08T01:33:35;1.40;99.00
1700;DHT22;847;48.058;7.810;2022-12-08T01:36:04;1.40;99.00
1700;DHT22;847;48.058;7.810;2022-12-08T01:38:31;1.40;99.00
1700;DHT22;847;48.058;7.810;2022-12-08T01:40:58;1.30;99.00
1700;DHT22;847;48.058;7.810;2022-12-08T01:46:07;1.30;99.00
1700;DHT22;847;48.058;7.810;2022-12-08T01:48:33;1.40;99.00
1700;DHT22;847;48.058;7.810;2022-12-08T01:51:00;1.40;99.00
1700;DHT22;847;48.058;7.810;2022-12-08T01:53:30;1.40;99.00
1700;DHT22;847;48.058;7.810;2022-12-08T01:56:00;1.40;99.00
1700;DHT22;847;48.058;7.810;2022-12-08T01:58:31;1.50;99.00
1700;DHT22;847;48.058;7.810;2022-12-08T02:01:00;1.40;99.00
1700;DHT22;847;48.058;7.810;2022-12-08T02:03:30;1.30;99.00
1700;DHT22;847;48.058;7.810;2022-12-08T02:05:59;1.20;99.00
1700;DHT22;847;48.058;7.810;2022-12-08T02:08:28;1.20;99.00
1700;DHT22;847;48.058;7.810;2022-12-08T02:10:56;1.20;99.00
1700;DHT22;847;48.058;7.810;2022-12-08T02:13:23;1.20;99.00
1700;DHT22;847;48.058;7.810;2022-12-08T02:15:56;1.10;99.00
1700;DHT22;847;48.058;7.810;2022-12-08T02:18:35;1.10;99.00
1700;DHT22;847;48.058;7.810;2022-12-08T02:21:08;1.10;99.00
1700;DHT22;847;48.058;7.810;2022-12-08T02:23:44;1.10;99.00
1700;DHT22;847;48.058;7.810;2022-12-08T02:26:44;1.20;99.00
1700;DHT22;847;48.058;7.810;2022-12-08T02:29:53;1.20;99.00
1700;DHT22;847;48.058;7.810;2022-12-08T02:32:42;1.30;99.00
1700;DHT22;847;48.058;7.810;2022-12-08T02:35:17;1.20;99.00
1700;DHT22;847;48.058;7.810;2022-12-08T02:37:55;1.10;99.00
1700;DHT22;847;48.058;7.810;2022-12-08T02:40:26;1.10;99.00
1700;DHT22;847;48.058;7.810;2022-12-08T02:42:56;1.10;99.00
1700;DHT22;847;48.058;7.810;2022-12-08T02:45:29;1.00;99.00
1700;DHT22;847;48.058;7.810;2022-12-08T02:47:57;1.00;99.00
1700;DHT22;847;48.058;7.810;2022-12-08T02:50:26;1.00;99.00
1700;DHT22;847;48.058;7.810;2022-12-08T02:52:54;1.00;99.00
1700;DHT22;847;48.058;7.810;2022-12-08T02:55:24;1.00;99.00
1700;DHT22;847;48.058;7.810;2022-12-08T02:58:11;1.00;99.00
1700;DHT22;847;48.058;7.810;2022-12-08T03:00:52;1.00;99.00
1700;DHT22;847;48.058;7.810;2022-12-08T03:03:29;0.70;99.00
1700;DHT22;847;48.058;7.810;2022-12-08T03:06:13;0.60;99.00
1700;DHT22;847;48.058;7.810;2022-12-08T03:08:53;0.50;99.00
1700;DHT22;847;48.058;7.810;2022-12-08T03:11:25;0.50;99.00
1700;DHT22;847;48.058;7.810;2022-12-08T03:13:57;0.60;99.00
1700;DHT22;847;48.058;7.810;2022-12-08T03:16:27;0.60;99.00
1700;DHT22;847;48.058;7.810;2022-12-08T03:19:00;0.60;99.00
1700;DHT22;847;48.058;7.810;2022-12-08T03:21:32;0.70;99.00
1700;DHT22;847;48.058;7.810;2022-12-08T03:24:01;0.70;99.00
1700;DHT22;847;48.058;7.810;2022-12-08T03:26:34;0.80;99.00
1700;DHT22;847;48.058;7.810;2022-12-08T03:29:02;0.80;99.00
1700;DHT22;847;48.058;7.810;2022-12-08T03:31:32;0.90;99.00
1700;DHT22;847;48.058;7.810;2022-12-08T03:34:02;0.90;99.00
1700;DHT22;847;48.058;7.810;2022-12-08T03:36:32;1.00;99.00
1700;DHT22;847;48.058;7.810;2022-12-08T03:38:59;1.00;99.00
1700;DHT22;847;48.058;7.810;2022-12-08T03:41:26;1.00;99.00
1700;DHT22;847;48.058;7.810;2022-12-08T03:43:55;1.10;99.00
1700;DHT22;847;48.058;7.810;2022-12-08T03:46:26;1.20;99.00
1700;DHT22;847;48.058;7.810;2022-12-08T03:48:54;1.20;99.00
1700;DHT22;847;48.058;7.810;2022-12-08T03:51:21;1.30;99.00
1700;DHT22;847;48.058;7.810;2022-12-08T03:53:49;1.40;99.00
1700;DHT22;847;48.058;7.810;2022-12-08T03:56:24;1.40;99.00
1700;DHT22;847;48.058;7.810;2022-12-08T03:58:52;1.30;99.00
1700;DHT22;847;48.058;7.810;2022-12-08T04:01:20;1.40;99.00
1700;DHT22;847;48.058;7.810;2022-12-08T04:03:47;1.30;99.00
1700;DHT22;847;48.058;7.810;2022-12-08T04:06:16;1.30;99.00
1700;DHT22;847;48.058;7.810;2022-12-08T04:08:50;1.40;99.00
1700;DHT22;847;48.058;7.810;2022-12-08T04:11:18;1.40;99.00
1700;DHT22;847;48.058;7.810;2022-12-08T04:13:49;1.40;99.00
1700;DHT22;847;48.058;7.810;2022-12-08T04:16:19;1.40;99.00
1700;DHT22;847;48.058;7.810;2022-12-08T04:18:46;1.40;99.00
1700;DHT22;847;48.058;7.810;2022-12-08T04:21:14;1.40;99.00
1700;DHT22;847;48.058;7.810;2022-12-08T04:23:42;1.30;99.00
1700;DHT22;847;48.058;7.810;2022-12-08T04:26:15;1.20;99.00
1700;DHT22;847;48.058;7.810;2022-12-08T04:28:43;1.20;99.00
1700;DHT22;847;48.058;7.810;2022-12-08T04:31:12;1.10;99.00
1700;DHT22;847;48.058;7.810;2022-12-08T04:33:40;1.10;99.00
1700;DHT22;847;48.058;7.810;2022-12-08T04:36:08;1.20;99.00
1700;DHT22;847;48.058;7.810;2022-12-08T04:38:35;1.10;99.00
1700;DHT22;847;48.058;7.810;2022-12-08T04:41:05;1.10;99.00
1700;DHT22;847;48.058;7.810;2022-12-08T04:43:36;1.10;99.00
1700;DHT22;847;48.058;7.810;2022-12-08T04:46:10;1.30;99.00
1700;DHT22;847;48.058;7.810;2022-12-08T04:48:39;1.20;99.00
1700;DHT22;847;48.058;7.810;2022-12-08T04:51:06;1.20;99.00
1700;DHT22;847;48.058;7.810;2022-12-08T04:53:37;1.10;99.00
1700;DHT22;847;48.058;7.810;2022-12-08T05:03:54;0.50;99.00
1700;DHT22;847;48.058;7.810;2022-12-08T05:08:56;0.50;99.00
1700;DHT22;847;48.058;7.810;2022-12-08T05:11:26;0.60;99.00
1700;DHT22;847;48.058;7.810;2022-12-08T05:14:02;0.60;99.00
1700;DHT22;847;48.058;7.810;2022-12-08T05:16:34;0.60;99.00
1700;DHT22;847;48.058;7.810;2022-12-08T05:19:04;0.70;99.00
1700;DHT22;847;48.058;7.810;2022-12-08T05:21:31;0.60;99.00
1700;DHT22;847;48.058;7.810;2022-12-08T05:24:07;0.60;99.00
1700;DHT22;847;48.058;7.810;2022-12-08T05:26:34;0.70;99.00
1700;DHT22;847;48.058;7.810;2022-12-08T05:29:03;0.60;99.00
1700;DHT22;847;48.058;7.810;2022-12-08T05:34:31;0.80;99.00
1700;DHT22;847;48.058;7.810;2022-12-08T05:36:58;0.80;99.00
1700;DHT22;847;48.058;7.810;2022-12-08T05:39:25;0.70;99.00
1700;DHT22;847;48.058;7.810;2022-12-08T05:41:52;0.70;99.00
1700;DHT22;847;48.058;7.810;2022-12-08T05:52:07;0.70;99.00
1700;DHT22;847;48.058;7.810;2022-12-08T05:54:34;0.50;99.00
1700;DHT22;847;48.058;7.810;2022-12-08T05:57:04;0.60;99.00
1700;DHT22;847;48.058;7.810;2022-12-08T06:12:30;0.30;99.00
1700;DHT22;847;48.058;7.810;2022-12-08T06:14:58;0.40;99.00
1700;DHT22;847;48.058;7.810;2022-12-08T06:17:25;0.40;99.00
1700;DHT22;847;48.058;7.810;2022-12-08T06:25:04;0.20;99.00
1700;DHT22;847;48.058;7.810;2022-12-08T06:27:35;0.30;99.00
1700;DHT22;847;48.058;7.810;2022-12-08T06:30:03;0.50;99.00
1700;DHT22;847;48.058;7.810;2022-12-08T06:32:30;0.50;99.00
1700;DHT22;847;48.058;7.810;2022-12-08T06:34:57;0.50;99.00
1700;DHT22;847;48.058;7.810;2022-12-08T06:37:24;0.50;99.00
1700;DHT22;847;48.058;7.810;2022-12-08T06:42:24;0.70;99.00
1700;DHT22;847;48.058;7.810;2022-12-08T06:45:13;0.70;99.00
1700;DHT22;847;48.058;7.810;2022-12-08T06:47:41;0.70;99.00
1700;DHT22;847;48.058;7.810;2022-12-08T06:50:09;0.80;99.00
1700;DHT22;847;48.058;7.810;2022-12-08T06:52:36;0.70;99.00
1700;DHT22;847;48.058;7.810;2022-12-08T06:55:06;0.80;99.00
1700;DHT22;847;48.058;7.810;2022-12-08T06:57:33;0.70;99.00
1700;DHT22;847;48.058;7.810;2022-12-08T07:00:00;0.70;99.00
1700;DHT22;847;48.058;7.810;2022-12-08T07:02:28;0.80;99.00
1700;DHT22;847;48.058;7.810;2022-12-08T07:04:55;0.70;99.00
1700;DHT22;847;48.058;7.810;2022-12-08T07:07:22;0.80;99.00
1700;DHT22;847;48.058;7.810;2022-12-08T07:09:49;0.80;99.00
1700;DHT22;847;48.058;7.810;2022-12-08T07:12:16;0.80;99.00
1700;DHT22;847;48.058;7.810;2022-12-08T07:14:43;0.80;99.00
1700;DHT22;847;48.058;7.810;2022-12-08T07:17:10;0.80;99.00
1700;DHT22;847;48.058;7.810;2022-12-08T07:19:39;0.80;99.00
1700;DHT22;847;48.058;7.810;2022-12-08T07:22:06;0.70;99.00
1700;DHT22;847;48.058;7.810;2022-12-08T07:24:33;0.70;99.00
1700;DHT22;847;48.058;7.810;2022-12-08T07:27:00;0.60;99.00
1700;DHT22;847;48.058;7.810;2022-12-08T07:29:27;0.60;99.00
1700;DHT22;847;48.058;7.810;2022-12-08T07:31:54;0.70;99.00
1700;DHT22;847;48.058;7.810;2022-12-08T07:34:21;0.70;99.00
1700;DHT22;847;48.058;7.810;2022-12-08T07:36:49;0.70;99.00
1700;DHT22;847;48.058;7.810;2022-12-08T07:39:16;0.70;99.00
1700;DHT22;847;48.058;7.810;2022-12-08T07:41:42;0.50;99.00
1700;DHT22;847;48.058;7.810;2022-12-08T07:44:09;0.50;99.00
1700;DHT22;847;48.058;7.810;2022-12-08T07:46:36;0.40;99.00
1700;DHT22;847;48.058;7.810;2022-12-08T07:49:03;0.50;99.00
1700;DHT22;847;48.058;7.810;2022-12-08T07:51:30;0.60;99.00
1700;DHT22;847;48.058;7.810;2022-12-08T07:53:58;0.70;99.00
1700;DHT22;847;48.058;7.810;2022-12-08T07:56:25;0.70;99.00
1700;DHT22;847;48.058;7.810;2022-12-08T07:58:52;0.70;99.00
1700;DHT22;847;48.058;7.810;2022-12-08T08:01:21;0.80;99.00
1700;DHT22;847;48.058;7.810;2022-12-08T08:03:48;0.80;99.00
1700;DHT22;847;48.058;7.810;2022-12-08T08:06:15;0.80;99.00
1700;DHT22;847;48.058;7.810;2022-12-08T08:08:42;0.70;99.00
1700;DHT22;847;48.058;7.810;2022-12-08T08:11:10;0.70;99.00
1700;DHT22;847;48.058;7.810;2022-12-08T08:13:37;0.70;99.00
1700;DHT22;847;48.058;7.810;2022-12-08T08:16:05;0.60;99.00
1700;DHT22;847;48.058;7.810;2022-12-08T08:18:32;0.60;99.00
1700;DHT22;847;48.058;7.810;2022-12-08T08:21:00;0.60;99.00
1700;DHT22;847;48.058;7.810;2022-12-08T08:23:27;0.70;99.00
1700;DHT22;847;48.058;7.810;2022-12-08T08:25:57;0.80;99.00
1700;DHT22;847;48.058;7.810;2022-12-08T08:28:25;0.70;99.00
1700;DHT22;847;48.058;7.810;2022-12-08T08:30:52;0.80;99.00
1700;DHT22;847;48.058;7.810;2022-12-08T08:33:19;0.70;99.00
1700;DHT22;847;48.058;7.810;2022-12-08T08:35:46;0.80;99.00
1700;DHT22;847;48.058;7.810;2022-12-08T08:38:13;0.80;99.00
1700;DHT22;847;48.058;7.810;2022-12-08T08:40:40;0.70;99.00
1700;DHT22;847;48.058;7.810;2022-12-08T08:43:07;0.70;99.00
1700;DHT22;847;48.058;7.810;2022-12-08T08:45:35;0.90;99.00
1700;DHT22;847;48.058;7.810;2022-12-08T08:48:03;1.00;99.00
1700;DHT22;847;48.058;7.810;2022-12-08T08:50:30;1.10;99.00
1700;DHT22;847;48.058;7.810;2022-12-08T08:52:58;1.20;99.00
1700;DHT22;847;48.058;7.810;2022-12-08T08:55:28;1.30;99.00
1700;DHT22;847;48.058;7.810;2022-12-08T08:57:55;1.30;99.00
1700;DHT22;847;48.058;7.810;2022-12-08T09:00:22;1.50;99.00
1700;DHT22;847;48.058;7.810;2022-12-08T09:02:52;1.50;99.00
1700;DHT22;847;48.058;7.810;2022-12-08T09:05:19;1.40;99.00
1700;DHT22;847;48.058;7.810;2022-12-08T09:07:46;1.50;99.00
1700;DHT22;847;48.058;7.810;2022-12-08T09:10:14;1.60;99.00
1700;DHT22;847;48.058;7.810;2022-12-08T09:12:44;1.70;99.00
1700;DHT22;847;48.058;7.810;2022-12-08T09:15:11;1.80;99.00
1700;DHT22;847;48.058;7.810;2022-12-08T09:17:38;1.90;99.00
1700;DHT22;847;48.058;7.810;2022-12-08T09:20:07;1.90;99.00
1700;DHT22;847;48.058;7.810;2022-12-08T09:22:34;1.90;99.00
1700;DHT22;847;48.058;7.810;2022-12-08T09:25:01;2.00;99.00
1700;DHT22;847;48.058;7.810;2022-12-08T09:27:28;2.00;99.00
1700;DHT22;847;48.058;7.810;2022-12-08T09:29:55;2.10;99.00
1700;DHT22;847;48.058;7.810;2022-12-08T09:32:21;2.10;99.00
1700;DHT22;847;48.058;7.810;2022-12-08T09:34:48;2.20;99.00
1700;DHT22;847;48.058;7.810;2022-12-08T09:37:17;2.20;99.00
1700;DHT22;847;48.058;7.810;2022-12-08T09:39:44;2.20;99.00
1700;DHT22;847;48.058;7.810;2022-12-08T09:42:12;2.30;99.00
1700;DHT22;847;48.058;7.810;2022-12-08T09:44:50;2.20;99.00
1700;DHT22;847;48.058;7.810;2022-12-08T09:47:24;2.20;99.00
1700;DHT22;847;48.058;7.810;2022-12-08T09:49:56;2.20;99.00
1700;DHT22;847;48.058;7.810;2022-12-08T09:52:29;2.20;99.00
1700;DHT22;847;48.058;7.810;2022-12-08T09:55:02;2.20;99.00
1700;DHT22;847;48.058;7.810;2022-12-08T09:57:29;2.20;99.00
1700;DHT22;847;48.058;7.810;2022-12-08T10:00:00;2.20;99.00
1700;DHT22;847;48.058;7.810;2022-12-08T10:02:29;2.30;99.00
1700;DHT22;847;48.058;7.810;2022-12-08T10:04:57;2.30;99.00
1700;DHT22;847;48.058;7.810;2022-12-08T10:07:33;2.30;99.00
1700;DHT22;847;48.058;7.810;2022-12-08T10:10:11;2.40;99.00
1700;DHT22;847;48.058;7.810;2022-12-08T10:12:44;2.40;99.00
1700;DHT22;847;48.058;7.810;2022-12-08T10:15:36;2.40;99.00
1700;DHT22;847;48.058;7.810;2022-12-08T10:18:11;2.30;99.00
1700;DHT22;847;48.058;7.810;2022-12-08T10:20:41;2.40;99.00
1700;DHT22;847;48.058;7.810;2022-12-08T10:23:17;2.50;99.00
1700;DHT22;847;48.058;7.810;2022-12-08T10:25:48;2.50;99.00
1700;DHT22;847;48.058;7.810;2022-12-08T10:28:15;2.50;99.00
1700;DHT22;847;48.058;7.810;2022-12-08T10:30:42;2.40;99.00
1700;DHT22;847;48.058;7.810;2022-12-08T10:33:13;2.40;99.00
1700;DHT22;847;48.058;7.810;2022-12-08T10:35:44;2.40;99.00
1700;DHT22;847;48.058;7.810;2022-12-08T10:38:19;2.40;99.00
1700;DHT22;847;48.058;7.810;2022-12-08T10:40:48;2.60;99.00
1700;DHT22;847;48.058;7.810;2022-12-08T10:43:19;2.60;99.00
1700;DHT22;847;48.058;7.810;2022-12-08T10:45:46;2.70;99.00
1700;DHT22;847;48.058;7.810;2022-12-08T10:48:16;2.80;99.00
1700;DHT22;847;48.058;7.810;2022-12-08T10:50:45;2.80;99.00
1700;DHT22;847;48.058;7.810;2022-12-08T10:53:17;2.80;99.00
1700;DHT22;847;48.058;7.810;2022-12-08T10:55:48;2.90;99.00
1700;DHT22;847;48.058;7.810;2022-12-08T10:58:27;2.90;99.00
1700;DHT22;847;48.058;7.810;2022-12-08T11:00:56;2.90;99.00
1700;DHT22;847;48.058;7.810;2022-12-08T11:03:27;2.80;99.00
1700;DHT22;847;48.058;7.810;2022-12-08T11:05:56;2.70;99.00
1700;DHT22;847;48.058;7.810;2022-12-08T11:08:24;2.70;99.00
1700;DHT22;847;48.058;7.810;2022-12-08T11:10:54;2.70;99.00
1700;DHT22;847;48.058;7.810;2022-12-08T11:13:23;2.60;99.00
1700;DHT22;847;48.058;7.810;2022-12-08T11:15:51;2.60;99.00
1700;DHT22;847;48.058;7.810;2022-12-08T11:18:22;2.60;99.00
1700;DHT22;847;48.058;7.810;2022-12-08T11:20:57;2.60;99.00
1700;DHT22;847;48.058;7.810;2022-12-08T11:23:26;2.70;99.00
1700;DHT22;847;48.058;7.810;2022-12-08T11:26:00;2.80;99.00
1700;DHT22;847;48.058;7.810;2022-12-08T11:28:36;2.90;99.00
1700;DHT22;847;48.058;7.810;2022-12-08T11:31:08;2.90;99.00
1700;DHT22;847;48.058;7.810;2022-12-08T11:33:39;3.00;99.00
1700;DHT22;847;48.058;7.810;2022-12-08T11:36:10;3.00;99.00
1700;DHT22;847;48.058;7.810;2022-12-08T11:38:41;3.10;99.00
1700;DHT22;847;48.058;7.810;2022-12-08T11:41:12;3.00;99.00
1700;DHT22;847;48.058;7.810;2022-12-08T11:43:45;3.00;99.00
1700;DHT22;847;48.058;7.810;2022-12-08T11:46:18;3.10;99.00
1700;DHT22;847;48.058;7.810;2022-12-08T11:48:49;3.20;99.00
1700;DHT22;847;48.058;7.810;2022-12-08T11:51:21;3.30;99.00
1700;DHT22;847;48.058;7.810;2022-12-08T11:54:05;3.20;99.00
1700;DHT22;847;48.058;7.810;2022-12-08T11:56:40;3.10;99.00
1700;DHT22;847;48.058;7.810;2022-12-08T11:59:15;3.30;99.00
1700;DHT22;847;48.058;7.810;2022-12-08T12:01:43;3.40;99.00
1700;DHT22;847;48.058;7.810;2022-12-08T12:04:16;3.40;99.00
1700;DHT22;847;48.058;7.810;2022-12-08T12:07:12;3.50;99.00
1700;DHT22;847;48.058;7.810;2022-12-08T12:09:51;3.50;99.00
1700;DHT22;847;48.058;7.810;2022-12-08T12:12:34;3.60;99.00
1700;DHT22;847;48.058;7.810;2022-12-08T12:15:30;3.50;99.00
1700;DHT22;847;48.058;7.810;2022-12-08T12:18:01;3.60;99.00
1700;DHT22;847;48.058;7.810;2022-12-08T12:20:32;3.70;99.00
1700;DHT22;847;48.058;7.810;2022-12-08T12:23:04;3.70;99.00
1700;DHT22;847;48.058;7.810;2022-12-08T12:25:34;3.70;99.00
1700;DHT22;847;48.058;7.810;2022-12-08T12:28:05;3.60;99.00
1700;DHT22;847;48.058;7.810;2022-12-08T12:30:51;3.50;99.00
1700;DHT22;847;48.058;7.810;2022-12-08T12:33:22;3.50;99.00
1700;DHT22;847;48.058;7.810;2022-12-08T12:35:48;3.60;99.00
1700;DHT22;847;48.058;7.810;2022-12-08T12:38:20;3.70;99.00
1700;DHT22;847;48.058;7.810;2022-12-08T12:41:07;3.70;99.00
1700;DHT22;847;48.058;7.810;2022-12-08T12:43:37;3.70;99.00
1700;DHT22;847;48.058;7.810;2022-12-08T12:46:40;3.70;99.00
1700;DHT22;847;48.058;7.810;2022-12-08T12:52:44;3.60;99.00
1700;DHT22;847;48.058;7.810;2022-12-08T12:58:37;3.70;99.00
1700;DHT22;847;48.058;7.810;2022-12-08T13:04:28;3.70;99.00
1700;DHT22;847;48.058;7.810;2022-12-08T13:06:55;3.70;99.00
1700;DHT22;847;48.058;7.810;2022-12-08T13:09:28;3.70;99.00
1700;DHT22;847;48.058;7.810;2022-12-08T13:11:58;3.70;99.00
1700;DHT22;847;48.058;7.810;2022-12-08T13:14:32;3.70;99.00
1700;DHT22;847;48.058;7.810;2022-12-08T13:17:03;3.60;99.00
1700;DHT22;847;48.058;7.810;2022-12-08T13:19:31;3.60;99.00
1700;DHT22;847;48.058;7.810;2022-12-08T13:21:59;3.70;99.00
1700;DHT22;847;48.058;7.810;2022-12-08T13:24:33;3.60;99.00
1700;DHT22;847;48.058;7.810;2022-12-08T13:27:31;3.60;99.00
1700;DHT22;847;48.058;7.810;2022-12-08T13:30:43;3.60;99.00
1700;DHT22;847;48.058;7.810;2022-12-08T13:33:15;3.50;99.00
1700;DHT22;847;48.058;7.810;2022-12-08T13:35:47;3.50;99.00
1700;DHT22;847;48.058;7.810;2022-12-08T13:38:18;3.50;99.00
1700;DHT22;847;48.058;7.810;2022-12-08T13:40:46;3.50;99.00
1700;DHT22;847;48.058;7.810;2022-12-08T13:43:18;3.50;99.00
1700;DHT22;847;48.058;7.810;2022-12-08T13:45:47;3.60;99.00
1700;DHT22;847;48.058;7.810;2022-12-08T13:48:18;3.60;99.00
1700;DHT22;847;48.058;7.810;2022-12-08T13:50:52;3.60;99.00
1700;DHT22;847;48.058;7.810;2022-12-08T13:53:22;3.60;99.00
1700;DHT22;847;48.058;7.810;2022-12-08T13:55:52;3.60;99.00
1700;DHT22;847;48.058;7.810;2022-12-08T13:58:26;3.60;99.00
1700;DHT22;847;48.058;7.810;2022-12-08T14:01:02;3.60;99.00
1700;DHT22;847;48.058;7.810;2022-12-08T14:03:33;3.60;99.00
1700;DHT22;847;48.058;7.810;2022-12-08T14:06:04;3.60;99.00
1700;DHT22;847;48.058;7.810;2022-12-08T14:08:33;3.70;99.00
1700;DHT22;847;48.058;7.810;2022-12-08T14:11:02;3.60;99.00
1700;DHT22;847;48.058;7.810;2022-12-08T14:13:30;3.70;99.00
1700;DHT22;847;48.058;7.810;2022-12-08T14:15:59;3.70;99.00
1700;DHT22;847;48.058;7.810;2022-12-08T14:18:28;3.70;99.00
1700;DHT22;847;48.058;7.810;2022-12-08T14:21:00;3.70;99.00
1700;DHT22;847;48.058;7.810;2022-12-08T14:23:27;3.70;99.00
1700;DHT22;847;48.058;7.810;2022-12-08T14:25:54;3.70;99.00
1700;DHT22;847;48.058;7.810;2022-12-08T14:28:22;3.70;99.00
1700;DHT22;847;48.058;7.810;2022-12-08T14:30:49;3.60;99.00
1700;DHT22;847;48.058;7.810;2022-12-08T14:33:18;3.50;99.00
1700;DHT22;847;48.058;7.810;2022-12-08T14:35:50;3.40;99.00
1700;DHT22;847;48.058;7.810;2022-12-08T14:38:18;3.40;99.00
1700;DHT22;847;48.058;7.810;2022-12-08T14:40:46;3.20;99.00
1700;DHT22;847;48.058;7.810;2022-12-08T14:43:16;3.10;99.00
1700;DHT22;847;48.058;7.810;2022-12-08T14:45:48;3.00;99.00
1700;DHT22;847;48.058;7.810;2022-12-08T14:48:21;2.80;99.00
1700;DHT22;847;48.058;7.810;2022-12-08T14:50:59;2.80;99.00
1700;DHT22;847;48.058;7.810;2022-12-08T14:53:34;2.80;99.00
1700;DHT22;847;48.058;7.810;2022-12-08T14:56:06;2.70;99.00
1700;DHT22;847;48.058;7.810;2022-12-08T14:58:33;2.70;99.00
1700;DHT22;847;48.058;7.810;2022-12-08T15:01:01;2.80;99.00
1700;DHT22;847;48.058;7.810;2022-12-08T15:03:33;2.90;99.00
1700;DHT22;847;48.058;7.810;2022-12-08T15:06:04;3.00;99.00
1700;DHT22;847;48.058;7.810;2022-12-08T15:08:33;3.00;99.00
1700;DHT22;847;48.058;7.810;2022-12-08T15:11:26;3.00;99.00
1700;DHT22;847;48.058;7.810;2022-12-08T15:13:53;3.00;99.00
1700;DHT22;847;48.058;7.810;2022-12-08T15:16:25;3.00;99.00
1700;DHT22;847;48.058;7.810;2022-12-08T15:19:04;3.00;99.00
1700;DHT22;847;48.058;7.810;2022-12-08T15:21:36;3.00;99.00
1700;DHT22;847;48.058;7.810;2022-12-08T15:24:03;3.00;99.00
1700;DHT22;847;48.058;7.810;2022-12-08T15:26:37;2.90;99.00
1700;DHT22;847;48.058;7.810;2022-12-08T15:29:09;2.80;99.00
1700;DHT22;847;48.058;7.810;2022-12-08T15:31:37;2.80;99.00
1700;DHT22;847;48.058;7.810;2022-12-08T15:34:05;2.80;99.00
1700;DHT22;847;48.058;7.810;2022-12-08T15:36:32;2.90;99.00
1700;DHT22;847;48.058;7.810;2022-12-08T15:38:59;2.90;99.00
1700;DHT22;847;48.058;7.810;2022-12-08T15:41:26;2.90;99.00
1700;DHT22;847;48.058;7.810;2022-12-08T15:43:52;2.80;99.00
1700;DHT22;847;48.058;7.810;2022-12-08T15:46:19;2.80;99.00
1700;DHT22;847;48.058;7.810;2022-12-08T15:48:46;2.80;99.00
1700;DHT22;847;48.058;7.810;2022-12-08T15:51:14;2.80;99.00
1700;DHT22;847;48.058;7.810;2022-12-08T15:53:41;2.80;99.00
1700;DHT22;847;48.058;7.810;2022-12-08T15:56:08;2.80;99.00
1700;DHT22;847;48.058;7.810;2022-12-08T15:58:35;2.70;99.00
1700;DHT22;847;48.058;7.810;2022-12-08T16:01:03;2.80;99.00
1700;DHT22;847;48.058;7.810;2022-12-08T16:03:30;2.80;99.00
1700;DHT22;847;48.058;7.810;2022-12-08T16:05:57;2.80;99.00
1700;DHT22;847;48.058;7.810;2022-12-08T16:08:28;2.80;99.00
1700;DHT22;847;48.058;7.810;2022-12-08T16:10:56;2.80;99.00
1700;DHT22;847;48.058;7.810;2022-12-08T16:13:43;2.70;99.00
1700;DHT22;847;48.058;7.810;2022-12-08T16:16:15;2.70;99.00
1700;DHT22;847;48.058;7.810;2022-12-08T16:18:47;2.70;99.00
1700;DHT22;847;48.058;7.810;2022-12-08T16:21:15;2.50;99.00
1700;DHT22;847;48.058;7.810;2022-12-08T16:23:44;2.50;99.00
1700;DHT22;847;48.058;7.810;2022-12-08T16:26:11;2.50;99.00
1700;DHT22;847;48.058;7.810;2022-12-08T16:28:40;2.50;99.00
1700;DHT22;847;48.058;7.810;2022-12-08T16:31:08;2.30;99.00
1700;DHT22;847;48.058;7.810;2022-12-08T16:33:36;2.30;99.00
1700;DHT22;847;48.058;7.810;2022-12-08T16:36:03;2.30;99.00
1700;DHT22;847;48.058;7.810;2022-12-08T16:38:30;2.30;99.00
1700;DHT22;847;48.058;7.810;2022-12-08T16:40:58;2.30;99.00
1700;DHT22;847;48.058;7.810;2022-12-08T16:43:43;2.30;99.00
1700;DHT22;847;48.058;7.810;2022-12-08T16:46:16;2.20;99.00
1700;DHT22;847;48.058;7.810;2022-12-08T16:48:43;2.20;99.00
1700;DHT22;847;48.058;7.810;2022-12-08T16:51:14;2.10;99.00
1700;DHT22;847;48.058;7.810;2022-12-08T16:53:41;2.00;99.00
1700;DHT22;847;48.058;7.810;2022-12-08T16:56:15;2.00;99.00
1700;DHT22;847;48.058;7.810;2022-12-08T16:58:43;1.90;99.00
1700;DHT22;847;48.058;7.810;2022-12-08T17:01:10;1.90;99.00
1700;DHT22;847;48.058;7.810;2022-12-08T17:03:38;1.80;99.00
1700;DHT22;847;48.058;7.810;2022-12-08T17:06:08;1.70;99.00
1700;DHT22;847;48.058;7.810;2022-12-08T17:08:34;1.70;99.00
1700;DHT22;847;48.058;7.810;2022-12-08T17:11:02;1.60;99.00
1700;DHT22;847;48.058;7.810;2022-12-08T17:13:40;1.60;99.00
1700;DHT22;847;48.058;7.810;2022-12-08T17:16:08;1.60;99.00
1700;DHT22;847;48.058;7.810;2022-12-08T17:18:36;1.70;99.00
1700;DHT22;847;48.058;7.810;2022-12-08T17:21:08;1.70;99.00
1700;DHT22;847;48.058;7.810;2022-12-08T17:23:36;1.70;99.00
1700;DHT22;847;48.058;7.810;2022-12-08T17:26:02;1.60;99.00
1700;DHT22;847;48.058;7.810;2022-12-08T17:28:29;1.60;99.00
1700;DHT22;847;48.058;7.810;2022-12-08T17:30:58;1.50;99.00
1700;DHT22;847;48.058;7.810;2022-12-08T17:33:25;1.50;99.00
1700;DHT22;847;48.058;7.810;2022-12-08T17:35:53;1.40;99.00
1700;DHT22;847;48.058;7.810;2022-12-08T17:38:21;1.40;99.00
1700;DHT22;847;48.058;7.810;2022-12-08T17:40:48;1.40;99.00
1700;DHT22;847;48.058;7.810;2022-12-08T17:43:14;1.30;99.00
1700;DHT22;847;48.058;7.810;2022-12-08T17:45:43;1.20;99.00
1700;DHT22;847;48.058;7.810;2022-12-08T17:48:12;1.20;99.00
1700;DHT22;847;48.058;7.810;2022-12-08T17:50:40;1.10;99.00